15th European Championshionship

2018-07-16 to 2018-07-28, FAI Category 1 event

Task 2 - Overall

2018-07-21 Task 2

Race to Goal 52.7 km

Oficial

No Leg Dist. Id Radius Open Close Coordinates Altitude
1 0.0 km T03 1 m 14:50 16:30 Lat: 41.91649 Lon: -7.71434 1238 m
2 SS 0.6 km W28 8000 m 15:40 18:30 Lat: 41.95074 Lon: -7.80312 1266 m
3 6.3 km W23 14000 m 15:40 18:30 Lat: 42.03215 Lon: -7.52861 890 m
4 14.0 km W14 3000 m 15:40 18:30 Lat: 41.89703 Lon: -7.76474 1273 m
5 21.7 km W23 14000 m 15:40 18:30 Lat: 42.03215 Lon: -7.52861 890 m
6 38.5 km BR7 25000 m 15:40 18:30 Lat: 41.80393 Lon: -8.0909 0 m
7 46.4 km W48 25000 m 15:40 18:30 Lat: 41.84899 Lon: -7.41668 426 m
8 ES 50.7 km W31 2000 m 15:40 18:30 Lat: 41.75339 Lon: -7.74776 880 m
9 51.8 km W31 1000 m 15:40 18:30 Lat: 41.75339 Lon: -7.74776 880 m
10 52.7 km G19 200 m 15:40 18:30 Lat: 41.76943 Lon: -7.75781 880 m
StartGate(s): 15:40

# Id Name Nat Glider Sponsor SS ES Time km/h Distance Dist.
Points
Lead.
Points
Time
Points
Total
1 4 Honorin Hamard M FRA Ozone Enzo 3 Altitude Eyewear - Naviter - CG50 - Club des Archanges - Ozone - Ligue Normandie - Icaro - Soartd 15:40:00 43.94 759.0 61.5 821
2 393 Theo Warden M GBR Ozone Enzo 3 Airways airsports,Cross Country Mag,Aerofix 15:40:00 44.08 761.3 56.4 818
3 13 Torsten Siegel M GER GIN GLIDERS Boomerang 11 GIN GLIDERS, pets Premium, Naviter 15:40:00 42.59 735.6 52.9 789
4 300 Christoph Eder M AUT Ozone Enzo 3 DFC-Wildkogelfalken/Eder Guido Installationen 15:40:00 42.74 738.1 49.5 788
5 119 Stanislav Klikar M CZE Ozone Enzo 2 Axispara.cz, LaaCR, pgkb.cz 15:40:00 42.61 735.9 51.1 787
5 338 Stephan Morgenthaler M SUI Ozone Enzo 3 15:40:00 41.70 720.3 66.2 787
7 676 Dominik Breitinger M SUI Gin Boomerang 11 GIN-Gliders 15:40:00 42.58 735.5 50.1 786
8 198 Yury Mishanin M RUS Ozone Enzo 3 Федерация спорта СЛА Рязанской области 15:40:00 41.61 718.7 62.9 782
9 161 Christian Amon M AUT Ozone Enzo 3 Mac Para-Kortell 15:40:00 42.13 727.6 48.6 776
10 114 Daniel Tyrkas M GER Ozone Enzo 3 DHV 15:40:00 41.03 708.6 66.5 775
11 212 Etienne Coupez M LUX Ozone Enzo 3 15:40:00 42.20 728.9 45.5 774
12 717 Jan Richard Hansen M NOR Ozone Enzo 3 Epizoom Multimedia Design 15:40:00 42.20 728.8 44.5 773
12 63 Francisco Javier Reina M ESP Ozone Enzo 3 Ozone.alamair 15:40:00 41.67 719.7 53.3 773
14 34 Andreas Malecki M GER Ozone Enzo 3 MWZ 24, Flugschule Chiemsee, DHV, 15:40:00 41.56 717.9 54.2 772
15 269 Vladimir Bacanin M SRB Flow XCracer VS Srbije, Air 037 Krusevac 15:40:00 41.54 717.5 50.3 768
15 22 Biagio Alberto Vitale M ITA Ozone Ozone EnZo 3 AeCI,AIRE Cornizzolo,Casarini,DMD,Corbelli Elettronica,Infopro 15:40:00 41.21 711.7 56.3 768
17 575 Michael Maurer M SUI GinGliders Boomerang11 GinGliders/ LaSportiva / cloud-7.ch / ONEDAY 15:40:00 40.31 696.2 70.7 767
18 14 Christian Biasi M ITA OZONE Enzo 3 TRENTINO - MONTURA - AIRE TEAM - AECI 15:40:00 41.03 708.7 56.3 765
19 1500 Ferdinand Vogel M GER Ozone Enzo 3 15:40:00 40.38 697.3 67.0 764
20 281 Gleb Sukhotskiy M RUS Ozone Enzo3 www.crimea-paragliding.com 15:40:00 41.34 714.1 48.6 763
20 218 Jurij Vidic M SLO Ozone Enzo 3 Agring doo, Naviter, High Adventure Switzerland, Slovenian Paragliding Team, Air Vuisa 15:40:00 41.03 708.6 54.4 763
20 906 Aleksei Korobkov M RUS Ozone Enzo 3 Теплый Дом 15:40:00 40.92 706.8 56.3 763
23 11 Xevi Bonet Dalmau M ESP Ozone Enzo 3 Ozone/Alamair/Naviter/Alfapilot 15:40:00 41.14 710.6 51.8 762
24 68 Petr Kostrhun M CZE Gin Boomerang 11 Atlantis-limousine-service.cz 15:40:00 41.42 715.4 44.3 760
24 111 Seiko Fukuoka Naville F FRA Ozone Enzo 4 Addactis, Ozone,Airlinks, La sambuy, Certika,Compass,Oneday,Nana 15:40:00 41.03 708.6 51.1 760
24 401 Rasa Grigoraitiene F LTU Ozone Zeno 15:40:00 41.75 721.1 39.3 760
27 266 Peter Budai M HUN Ozone Zeno 15:40:00 41.54 717.4 41.8 759
27 31 Carlos Lopes M POR Ozone Zeno www.mineiro.com.pt 15:40:00 41.55 717.6 41.7 759
27 1 Michael Sigel M SUI GIN Boomerang 11 Gin Gliders, JACK&JONES, Naviter 15:40:00 40.16 693.6 65.4 759
30 707 Remko Bolt M NED Ozone Zeno http://www.winchline.nl/ 15:40:00 41.38 714.6 43.1 758
30 26 Julian Robinson M GBR Gin Boomerang 11 UK Airsports 15:40:00 41.05 709.0 48.9 758
32 16 Primoz Susa M SLO Ozone Enzo 2 camp-gabrje.com, naviter.com, High Adventure Switzerland 15:40:00 40.50 699.6 56.4 756
32 69 Stanislav Mayer M CZE Gin Boomerang 11 GIN, Kernun, Certicon, SvazPG, HighPoint, Victorinox 15:40:00 41.05 709.0 46.8 756
32 102 Michele Boschi M ITA Ozone EnZo 3 Digifly - AireCornizzolo- AeCI 15:40:00 41.16 710.9 45.1 756
35 77 Jan Jares M CZE Up Meru/XR7 eHAMnet UP-czech, Flyskin, LAAcr 15:40:00 41.16 710.9 44.5 755
35 234 Juho Komulainen M FIN Ozone Enzo 3 Flymigu 15:40:00 40.91 706.5 48.0 755
37 24 Damir Habek M CRO Niviuk Icepeak 8 15:40:00 40.75 703.8 50.2 754
38 224 Malin Lobb M GBR Ozone Enzo 3 FLYEO 15:40:00 40.77 704.2 48.4 753
38 621 Nuno Virgilio M POR Flow XC Racer Flymaster / paragliding.BSTOKED.net / ActionCoin / Flow paragliders 15:40:00 41.04 708.8 43.9 753
40 1987 Krzysztof Schmidt M POL Ozone Zeno QNT Systemy Informatyczne 15:40:00 40.75 703.9 48.2 752
41 998 Jacek Gorski M POL Ozone Zeno Alti-paralotnie 15:40:00 40.48 699.2 50.6 750
42 282 Bojan Gabersek M SLO Ozone Enzo 3 AVTODELI GABERSEK, IBUS, ASKELA, COMPANI 15:40:00 40.49 699.2 50.2 749
42 3 Joachim Oberhauser M ITA Ozone Enzo 3 Airecornizzolo-Superfly360-elektroww-Ruedlohg-Xdreamfly-publicolor 15:40:00 40.43 698.3 51.0 749
44 541 Michal Gierlach M POL Ozone Enzo 3 XC Spike, SPBW, Airvuisa 15:40:00 40.47 699.0 49.2 748
44 12 Julien Wirtz M FRA Ozone Enzo 3 Ozone, Certika 15:40:00 40.19 694.1 53.5 748
46 8 Ernesto Hinestroza M GER Ozone Enzo3 DGFW, DHV, Kontest, talkyoo 15:40:00 40.49 699.4 47.2 747
47 20 Ronny Helgesen M NOR Ozone Enzo 3 Termikk&Rotor A/S 15:40:00 40.26 695.4 49.5 745
48 453 Alexander Schalber M AUT Ozone Enzo 3 Flugschule Salzburg / Naviter 15:40:00 40.43 698.3 46.0 744
49 123 Daria Krasnova F RUS Up Meru UP Paragliders 15:40:00 40.32 696.4 46.6 743
49 98 Simon Arnold M AUT Ozone Enzo 3 flywear 15:40:00 39.59 683.8 59.4 743
51 62 Petra Slivova F CZE Gin Boomerang 11 GIN GLIDERS, LAA CR 15:40:00 40.01 691.0 50.5 742
52 7 Luc Armant M FRA Ozone Enzo 3 ozone 15:40:00 39.73 686.2 54.5 741
53 1405 Mariusz Wisniowski M POL Ozone Enzo 3 15:40:00 40.03 691.3 47.4 739
53 1114 Rolf Dale M NOR Ozone Enzo 3 15:40:00 40.03 691.3 47.3 739
55 56 FELIX Rodriguez Fernández M ESP Ozone Enzo 3 OZONE-NACEX-CERTIKA-AIR SPORTS CHAMONIX-JULBO 15:40:00 39.92 689.5 48.5 738
55 291 Marco Busetta M ITA Ozone Enzo 3 Bullet speedbar, ilpistacchio.it, AeCI 15:40:00 39.99 690.7 47.4 738
57 5 Charles Cazaux M FRA Ozone Enzo 3 Airlinks Academy l Morzine l Ozone l Naviter l ONE Day 15:40:00 39.39 680.3 54.2 735
58 41 Eusebio Soares M POR Ozone Enzo 3 Soares & Soares 15:40:00 39.96 690.1 44.2 734
59 713 Antonio Tabanez Fonseca M POR Ozone Enzo 3 FPVL; AGROL S.A; C.M. Lousã 15:40:00 39.77 686.9 45.0 732
59 741 Stepan Kechedzhi M UKR Ozone Enzo 3 15:40:00 39.48 681.8 49.9 732
61 404 Antun Lovrec M CRO Ozone Zeno 15:40:00 39.40 680.4 50.0 730
62 1611 Ricardo Rodrigues M POR Ozone Zeno paragliding.BSTOKED.net; Azores Airlines; BGD 15:40:00 40.00 690.9 37.7 729
62 44 David Ohlidal M CZE Gin boom LAA ČR,Axis 15:40:00 39.13 675.9 52.6 729
62 340 Nanda Walliser F SUI Up Meru UP Paragliders & High-Adventure 15:40:00 39.71 685.9 43.2 729
62 83 Idris Birch M GBR Gin Boom 11 Gin Gliders 15:40:00 39.29 678.6 49.9 729
66 244 Thibault Voglet M BEL Ozone Enzo 2 Fou d´l, Profondeville, Les 7 Meuses 15:40:00 39.09 675.1 51.7 727
66 997 Pawel Faron M POL Ozone Zeno Fadróg,Connect,Red Bull,Konstrukcje Żywiec, Salewa, flylite.pl 15:40:00 39.06 674.6 52.1 727
66 771 Dusan Oroz M SLO Ozone Enzo 3 High Adventure, Naviter, X-Dreamfly 15:40:00 39.10 675.4 51.3 727
69 3137 Alexey Bystritskiy M RUS Ozone Enzo 3 asa-fly.ru 15:40:00 39.10 675.3 49.4 725
69 17 Ulrich Prinz M GER Ozone Enzo 3 Ozone 15:40:00 38.91 672.0 53.1 725
69 1119 Mari-Anne Aanes F NOR Ozone Zeno 15:40:00 39.59 683.8 41.2 725
69 249 Emil Cervenan M SVK Ozone Enzo 3 LAA SR | AXIS PARAGLIDING 15:40:00 38.87 671.3 53.8 725
73 871 Paulo Silva M POR Gin Boomerang 11 Azores Airlines 15:40:00 39.05 674.5 49.0 724
74 42 Yael Margelisch F SUI Ozone Enzo 3 GDentanBySutech, Naviter, ONEDAY, Alp'sports thérapies 15:40:00 38.85 671.0 51.1 722
74 248 Volodymyr Perevalov M UKR Ozone Enzo3 NearBirds 15:40:00 39.10 675.4 46.7 722
76 1212 Jesus Costa Sanchez M ESP Gin Boomerang 11 Kasana Gin - parapentedesnivel.com -Maditarranean paraglidin.com 15:40:00 38.78 669.9 51.0 721
76 51 Sergi Claret Estupinya M ESP Boomerang 11 Kasana, Gin Gliders 15:40:00 38.84 670.8 50.2 721
78 236 Andrey Eliseev M RUS Ozone Enzo 3 no 15:40:00 38.82 670.5 49.2 720
79 273 Zeljko Ovuka M SRB Ozone Enzo 3 VS Srbije, Ares Beograd 15:40:00 38.93 672.5 45.3 718
79 515 Tilen Ceglar M SLO Ozone Enzo 3 NAVITER | High Adventure CH | Factorystore.si 15:40:00 38.76 669.5 48.8 718
81 512 Vitalii Umanskyi M UKR Ozone Enzo 3 15:40:00 39.67 685.2 31.8 717
82 399 Dominika Kasieczko F POL Ozone Zeno Ozone Polska, GRAVITACJA 15:40:00 38.89 671.8 43.1 715
83 54 Jose Rebelo M POR Ozone Enzo 3 FPVL, Bstoked, CP Linhares da Beira 15:40:00 38.24 660.5 52.5 713
84 33 Balan Antoniu Cristian M ROU Ozone Zeno www.AirSports.ro 15:40:00 38.57 666.1 40.4 707
85 121 Gyula Fichtinger M HUN Ozone Zeno Ozone Hungary 15:40:00 38.41 663.4 42.9 706
86 353 Aron Michiels M BEL Ozone Enzo 3 FreeToFly 15:40:00 38.33 662.0 43.0 705
86 2 Tudor Dorobantu M ROU Niviuk Klimber P Tellur 15:40:00 38.53 665.4 39.6 705
88 211 Stefan Vyparina M SVK Ozone Enzo 3 Gaži statika, Perfectfly, SPORTRYSY, LAA SR 15:40:00 37.59 649.3 46.4 696
89 32 Evgeny Kalashnik M UKR Gin Boom 11 Kalashnik 15:40:00 37.42 646.3 45.2 692
90 384 Andrew Williams M GBR Ozone Zeno ESCAPE XC 15:40:00 37.09 640.6 45.9 687
91 45 Adrian Hachen M SUI Gin Gliders Boomerang 11 GIN Gliders 15:40:00 36.50 630.5 55.3 686
91 708 Klaudia Bulgakow F POL Ozone EnZo 3 S Lukoil 15:40:00 37.43 646.4 39.3 686
93 50 Pierre Remy M FRA Ozone Enzo3 Cg hautes Pyrénées, midi pyrénées, VLB 15:40:00 36.01 621.9 50.9 673
94 1000 Bogdan Bialka M IRL Ozone Enzo 3 SkyMaster 15:40:00 36.19 625.1 45.9 671
95 181 Sami Pitkakoski M FIN Ozone Zeno 15:40:00 36.08 623.2 46.3 670
96 46 Kalle Ojamo M FIN Ozone Zeno Greenled.fi 15:40:00 35.96 621.2 43.1 664
96 40 Pavel Iker M CZE Gin Boomerang 11 ZICO a.s.; LAA ČR; GIN ČR 15:40:00 35.76 617.6 46.7 664
98 201 Johanna Hamne F SWE Ozone Zeno Odd Molly 15:40:00 35.97 621.2 40.5 662
99 48 Tor Jansson M SWE Ozone Zeno velodrom.se skysport.se 15:40:00 35.90 620.0 40.1 660
100 251 Martin Long M GBR Ozone Zeno www.flysussex.com 15:40:00 35.40 611.4 47.1 659
101 1717 Umut Akturk M TUR Ozone Enzo 3 Turkish Aeronautical Association 15:40:00 35.36 610.6 46.8 657
101 316 Marco Littame M ITA Ozone Enzo 2 luca/lisa 15:40:00 35.18 607.6 49.0 657
101 156 Luis Linde M ESP Ozone Enzo 2 Niviuk - Skywalk España - Draco - ALS Sport 15:40:00 35.56 614.2 42.5 657
104 314 Kristian Andersson M NOR Ozone Zeno JK 15:40:00 35.48 612.8 42.3 655
104 66 Jessica Cox F GBR Ozone Zeno Fly Sussex Paragliding 15:40:00 35.93 620.5 34.4 655
104 1771 Nils-Aake Carlsson M SWE Ozone Enzo 3 FlyItParagliding.com 15:40:00 35.40 611.4 43.1 655
107 71 Francis De Bruyn M BEL Ozone Enzo 3 15:40:00 35.19 607.7 46.3 654
108 1171 Hakan Lindqvist M SWE Ozone Zeno skysport.se 15:40:00 35.39 611.3 41.4 653
108 205 Ari Sahlstrom M FIN Gin Boomerang 11 Vauhtifarmi Oy 15:40:00 35.17 607.5 45.3 653
110 1117 Silvia Buzzi Ferraris F ITA Ozone Enzo 3 Pandol-Fly ; VerticalAttitude ; AeCI 15:40:00 35.00 604.6 46.2 651
111 222 Federico Nevastro M ITA Gin Boomerang 11 AeCi-Paradelta Club Feltre 15:40:00 35.28 609.3 40.6 650
112 28 Marek Janosik M SVK UP Meru UP Slovakia 15:40:00 35.99 621.7 24.8 647
112 1177 Antoni Buljan M CRO Ozone Zeno Absolute adventure 15:40:00 35.03 605.0 42.4 647
114 504 Tadej Krevh M SLO Ozone Enzo3 Naviter.com, High Adventure 15:40:00 34.82 601.5 44.1 646
115 500 Jost Napret M SLO Ozone Enzo 3 NAVITER I High Adventure Switzerland 15:40:00 34.59 597.4 44.4 642
116 377 Elisabeth Egger F AUT Ozone Zeno S Egger BEST-Box BetriebsgmbH 15:40:00 34.83 601.6 39.5 641
117 985 Thomas Brandlehner M AUT Ozone Enzo 3 www.axians.at 15:40:00 34.13 589.5 46.6 636
118 19 Kimmo Korhonen M FIN Gin Boomerang 11 Redheat Oy, Levytyö Särkinen Oy 15:40:00 34.75 600.1 35.0 635
119 35 Tomas Podmanik M SVK Ozone Zeno obec Veľké Kršteňany, LAA SR, REVIS 15:40:00 34.22 591.0 43.3 634
120 261 Konstiantyn Matusevych M UKR Ozone Zeno "Antonov" company, Nearbirds 15:40:00 34.31 592.6 40.2 633
121 6 Yvonne Dathe F GER UP Meru WinMental.de, FlyTeam 15:40:00 34.29 592.3 36.6 629
122 262 Ewa Korneluk-Guzy F GER Ozone Zeno paraclinic.at, Sziols 15:40:00 34.12 589.3 32.9 622
123 78 Eemeli Aittokallio M FIN Ozone Zeno 15:40:00 33.86 584.9 33.0 618
124 542 Stanislav Vojtek M SVK Ozone Zeno Funcars,belmar,čau sa bau 15:40:00 31.78 548.8 42.4 591
125 25 Jaroslav Janduch M SVK Ozone Enzo 2 Laa.sk Premat,s.r.o. 15:40:00 31.74 548.3 41.4 590
126 311 Peter Vyparina M SVK Ozone Enzo GAZI statika, SPORTRYSY, Perfectfly, 15:40:00 31.67 547.0 41.2 588
127 191 Mirvad Zenuni M BIH Ozone Zeno Muscle Freak 15:40:00 32.23 556.7 25.6 582
128 235 John Herman Sorheim M NOR Ozone Enzo 3 Kystdesign 15:40:00 31.30 540.6 39.9 581
129 173 Birkan Paçali M TUR Ozone Zeno THK 15:40:00 30.97 534.9 36.3 571
130 313 Quentin Debras M BEL BGD Diva Tilman SA - BGD - LaRoch'Ailes - Willame Motors - Kia Belux Atom 15:40:00 31.62 546.1 22.4 569
131 21 Dana Kelemen F ROU Ozone Alpina 2 15:40:00 31.61 546.0 18.9 565
132 317 Srdjan Kesic M SRB Ozone Zeno VS Srbije, AK Novi Sad 15:40:00 30.49 526.5 527
133 1295 Philipp Haag M GER Gin Boomerang 11 B.A.H Gruppe/ Maier Sports GmbH 15:40:00 28.59 493.7 31.8 526
134 49 Silvia de Oliveira Ventura F POR NOVA Triton 2 Light XS NOVA, WIND 15:40:00 21.94 379.0 379
135 174 Aleksandar Santrac M BIH Ozone Enzo 3 15:40:00 21.75 375.7 376
136 117 Pierre Therer M BEL Ozone Enzo 2 AirDeck 15:40:00 18.05 311.8 312
137 84 Clement Latour M FRA Ozone ENZO3 FFVL SUPAIR 15:40:00 17.47 301.7 302
138 27 Zoran Boskovic M CRO Niviuk Icepeak 6 Moa 15:40:00 16.67 287.9 288
139 10 Meryl Delferriere F FRA Ozone Enzo 3 Ressources parapente/xctracer/adrenagliss 15:40:00 16.24 280.5 281
140 15 Daniel Pop M ROU BGD Diva BGD 15:40:00 13.89 239.9 240
141 539 Antanas Jakucevicius M LTU Ozone Zeno Nemanta 15:40:00 13.61 235.1 235
142 9 Razvan Nitoiu M ROU Ozone Delta 3 retrofit.ro 15:40:00 11.45 197.8 198
143 815 Katalin Juhasz F HUN Ozone Zeno fAirPlay, lortech, ASE 15:40:00 11.37 196.3 196
144 81 Florin Iftinca M ROU Swing Nexus 15:40:00 10.87 187.7 188
145 47 Artem Lozovoy M RUS Ozone Enzo 3 Спортивная федерация спорта СЛА Ленинградской области 15:40:00 10.77 186.1 186
145 375 Srdjan Ristanovic M SRB Ozone Enzo 3 VS Srbije, Xperience360 15:40:00 10.79 186.3 186
147 103 Peter Nägele M GER Ozone Enzo 3 DHV, DCH, yellow cross 15:40:00 10.61 183.2 183
147 1011 Lara Leban F SLO NOVA Sector Naviter, Adrenalin paragliding team, Triple seven 15:40:00 10.57 182.6 183
149 29 Romana Schubertova F SVK UP Trango XC3 UP Slovakia 15:40:00 10.29 177.7 178
150 333 Predrag Neskovic M SRB Ozone Zeno VS Srbije, Pegaz Ivanjica DNF 0.0 0

Notes

Id Name Note
333 Predrag Neskovic Assinou folha não descolagem

Pilots absent from task (ABS)

Id Name

Pilots not yet processed (NYP)

Id Name

Task statistics

param value
ss_distance 50.104
task_distance 52.714
launch_to_ess_distance 50.696
no_of_pilots_present 150
no_of_pilots_flying 149
no_of_pilots_lo 149
no_of_pilots_reaching_nom_dist 0
no_of_pilots_reaching_es 0
no_of_pilots_reaching_goal 0
sum_flown_distance 5329.412
best_dist 44.076
best_time 0
worst_time 0
no_of_pilots_in_competition 150
no_of_pilots_landed_before_stop 0
sum_dist_over_min 4584.412
sum_real_dist_over_min 4584.412
sum_flown_distances 5329.412
best_real_dist 44.076
last_start_time 2018-07-21T15:40:00+01:00
max_time_to_get_time_points 0
no_of_pilots_with_time_points 0
goalratio 0
arrival_weight 0
departure_weight 0
leading_weight 0.0836134613195735
time_weight 0
distance_weight 0.9
smallest_leading_coefficient 1.42587765643054
available_points_distance 761.272863199245
available_points_time 0
available_points_departure 0
available_points_leading 70.7251767786123
available_points_arrival 0
time_validity 0.917159216505352
launch_validity 1
distance_validity 0.922259430713702
stop_validity 1
day_quality 0.84585873688805
ftv_day_validity 0.831998039977858
time_points_stop_correction 0

Scoring formula settings

param value
id GAP2018
min_dist 5
nom_dist 60
nom_time 1.5
nom_launch 0.96
nom_goal 0.3
day_quality_override 0
bonus_gr 4
jump_the_gun_factor 0
jump_the_gun_max 0
normalize_1000_before_day_quality 0
time_points_if_not_in_goal 0
use_1000_points_for_max_day_quality 0
use_arrival_position_points 0
use_arrival_time_points 0
use_departure_points 0
use_difficulty_for_distance_points 0
use_distance_points 1
use_distance_squared_for_LC 1
use_leading_points 1
use_semi_circle_control_zone_for_goal_line 1
use_time_points 1
scoring_altitude QNH
final_glide_decelerator none
no_final_glide_decelerator_reason
min_time_span_for_valid_task 60
score_back_time 5
use_proportional_leading_weight_if_nobody_in_goal 1
leading_weight_factor 2
turnpoint_radius_tolerance 0.002
Report created: 2018-07-23T00:47:30+01:00

FS development, maintenance and support by